sensor_id;sensor_type;location;lat;lon;timestamp;temperature;humidity
10437;DHT22;5265;50.006;9.202;2023-03-11T00:00:32;1.80;99.90
10437;DHT22;5265;50.006;9.202;2023-03-11T00:02:59;1.80;99.90
10437;DHT22;5265;50.006;9.202;2023-03-11T00:05:28;1.80;99.90
10437;DHT22;5265;50.006;9.202;2023-03-11T00:07:55;1.70;99.90
10437;DHT22;5265;50.006;9.202;2023-03-11T00:10:24;1.70;99.90
10437;DHT22;5265;50.006;9.202;2023-03-11T00:12:51;1.70;99.90
10437;DHT22;5265;50.006;9.202;2023-03-11T00:15:19;1.80;99.90
10437;DHT22;5265;50.006;9.202;2023-03-11T00:17:46;1.70;99.90
10437;DHT22;5265;50.006;9.202;2023-03-11T00:20:16;1.70;99.90
10437;DHT22;5265;50.006;9.202;2023-03-11T00:22:43;1.60;99.90
10437;DHT22;5265;50.006;9.202;2023-03-11T00:25:10;1.90;99.90
10437;DHT22;5265;50.006;9.202;2023-03-11T00:27:39;1.80;99.90
10437;DHT22;5265;50.006;9.202;2023-03-11T00:30:06;1.80;99.90
10437;DHT22;5265;50.006;9.202;2023-03-11T00:32:34;2.00;99.90
10437;DHT22;5265;50.006;9.202;2023-03-11T00:35:01;1.80;99.90
10437;DHT22;5265;50.006;9.202;2023-03-11T00:37:28;1.90;99.90
10437;DHT22;5265;50.006;9.202;2023-03-11T00:39:57;1.70;99.90
10437;DHT22;5265;50.006;9.202;2023-03-11T00:42:24;1.60;99.90
10437;DHT22;5265;50.006;9.202;2023-03-11T00:44:53;1.80;99.90
10437;DHT22;5265;50.006;9.202;2023-03-11T00:47:20;1.80;99.90
10437;DHT22;5265;50.006;9.202;2023-03-11T00:49:47;1.80;99.90
10437;DHT22;5265;50.006;9.202;2023-03-11T00:52:14;1.80;99.90
10437;DHT22;5265;50.006;9.202;2023-03-11T00:54:42;1.70;99.90
10437;DHT22;5265;50.006;9.202;2023-03-11T00:57:12;1.80;99.90
10437;DHT22;5265;50.006;9.202;2023-03-11T00:59:41;1.70;99.90
10437;DHT22;5265;50.006;9.202;2023-03-11T01:02:09;1.80;99.90
10437;DHT22;5265;50.006;9.202;2023-03-11T01:04:37;1.70;99.90
10437;DHT22;5265;50.006;9.202;2023-03-11T01:07:05;1.60;99.90
10437;DHT22;5265;50.006;9.202;2023-03-11T01:09:32;1.60;99.90
10437;DHT22;5265;50.006;9.202;2023-03-11T01:11:59;1.60;99.90
10437;DHT22;5265;50.006;9.202;2023-03-11T01:14:27;1.80;99.90
10437;DHT22;5265;50.006;9.202;2023-03-11T01:16:54;1.70;99.90
10437;DHT22;5265;50.006;9.202;2023-03-11T01:19:23;1.60;99.90
10437;DHT22;5265;50.006;9.202;2023-03-11T01:21:50;2.00;99.90
10437;DHT22;5265;50.006;9.202;2023-03-11T01:24:17;1.50;99.90
10437;DHT22;5265;50.006;9.202;2023-03-11T01:26:44;1.70;99.90
10437;DHT22;5265;50.006;9.202;2023-03-11T01:29:11;1.60;99.90
10437;DHT22;5265;50.006;9.202;2023-03-11T01:31:38;1.60;99.90
10437;DHT22;5265;50.006;9.202;2023-03-11T01:34:05;1.60;99.90
10437;DHT22;5265;50.006;9.202;2023-03-11T01:36:34;1.70;99.90
10437;DHT22;5265;50.006;9.202;2023-03-11T01:39:01;1.60;99.90
10437;DHT22;5265;50.006;9.202;2023-03-11T01:41:28;1.80;99.90
10437;DHT22;5265;50.006;9.202;2023-03-11T01:43:56;1.70;99.90
10437;DHT22;5265;50.006;9.202;2023-03-11T01:46:29;1.60;99.90
10437;DHT22;5265;50.006;9.202;2023-03-11T01:48:57;1.50;99.90
10437;DHT22;5265;50.006;9.202;2023-03-11T01:51:31;1.70;99.90
10437;DHT22;5265;50.006;9.202;2023-03-11T01:54:01;1.70;99.90
10437;DHT22;5265;50.006;9.202;2023-03-11T01:56:30;1.70;99.90
10437;DHT22;5265;50.006;9.202;2023-03-11T01:58:58;1.90;99.90
10437;DHT22;5265;50.006;9.202;2023-03-11T02:01:25;1.70;99.90
10437;DHT22;5265;50.006;9.202;2023-03-11T02:03:53;1.50;99.90
10437;DHT22;5265;50.006;9.202;2023-03-11T02:06:21;1.70;99.90
10437;DHT22;5265;50.006;9.202;2023-03-11T02:08:49;1.60;99.90
10437;DHT22;5265;50.006;9.202;2023-03-11T02:11:19;1.70;99.90
10437;DHT22;5265;50.006;9.202;2023-03-11T02:13:46;1.50;99.90
10437;DHT22;5265;50.006;9.202;2023-03-11T02:16:14;1.60;99.90
10437;DHT22;5265;50.006;9.202;2023-03-11T02:18:42;1.60;99.90
10437;DHT22;5265;50.006;9.202;2023-03-11T02:21:13;1.60;99.90
10437;DHT22;5265;50.006;9.202;2023-03-11T02:23:45;1.90;99.90
10437;DHT22;5265;50.006;9.202;2023-03-11T02:26:16;1.60;99.90
10437;DHT22;5265;50.006;9.202;2023-03-11T02:28:47;1.70;99.90
10437;DHT22;5265;50.006;9.202;2023-03-11T02:31:14;1.70;99.90
10437;DHT22;5265;50.006;9.202;2023-03-11T02:33:42;1.40;99.90
10437;DHT22;5265;50.006;9.202;2023-03-11T02:38:52;1.70;99.90
10437;DHT22;5265;50.006;9.202;2023-03-11T02:41:19;1.50;99.90
10437;DHT22;5265;50.006;9.202;2023-03-11T02:43:48;1.60;99.90
10437;DHT22;5265;50.006;9.202;2023-03-11T02:46:16;1.50;99.90
10437;DHT22;5265;50.006;9.202;2023-03-11T02:48:45;1.50;99.90
10437;DHT22;5265;50.006;9.202;2023-03-11T02:51:13;1.20;99.90
10437;DHT22;5265;50.006;9.202;2023-03-11T02:53:43;1.40;99.90
10437;DHT22;5265;50.006;9.202;2023-03-11T02:56:13;1.30;99.90
10437;DHT22;5265;50.006;9.202;2023-03-11T02:58:41;1.30;99.90
10437;DHT22;5265;50.006;9.202;2023-03-11T03:01:10;1.20;99.90
10437;DHT22;5265;50.006;9.202;2023-03-11T03:03:40;1.00;99.90
10437;DHT22;5265;50.006;9.202;2023-03-11T03:06:07;1.30;99.90
10437;DHT22;5265;50.006;9.202;2023-03-11T03:08:34;1.50;99.90
10437;DHT22;5265;50.006;9.202;2023-03-11T03:11:01;1.30;99.90
10437;DHT22;5265;50.006;9.202;2023-03-11T03:13:29;1.20;99.90
10437;DHT22;5265;50.006;9.202;2023-03-11T03:15:57;1.40;99.90
10437;DHT22;5265;50.006;9.202;2023-03-11T03:18:26;1.20;99.90
10437;DHT22;5265;50.006;9.202;2023-03-11T03:20:53;1.30;99.90
10437;DHT22;5265;50.006;9.202;2023-03-11T03:23:21;1.30;99.90
10437;DHT22;5265;50.006;9.202;2023-03-11T03:25:48;1.20;99.90
10437;DHT22;5265;50.006;9.202;2023-03-11T03:28:15;1.30;99.90
10437;DHT22;5265;50.006;9.202;2023-03-11T03:30:44;1.30;99.90
10437;DHT22;5265;50.006;9.202;2023-03-11T03:33:12;1.30;99.90
10437;DHT22;5265;50.006;9.202;2023-03-11T03:35:42;1.20;99.90
10437;DHT22;5265;50.006;9.202;2023-03-11T03:38:32;1.30;99.90
10437;DHT22;5265;50.006;9.202;2023-03-11T03:41:00;1.20;99.90
10437;DHT22;5265;50.006;9.202;2023-03-11T03:43:27;1.90;99.90
10437;DHT22;5265;50.006;9.202;2023-03-11T03:45:55;1.30;99.90
10437;DHT22;5265;50.006;9.202;2023-03-11T03:48:23;1.30;99.90
10437;DHT22;5265;50.006;9.202;2023-03-11T03:50:52;1.30;99.90
10437;DHT22;5265;50.006;9.202;2023-03-11T03:53:19;1.30;99.90
10437;DHT22;5265;50.006;9.202;2023-03-11T03:55:47;1.30;99.90
10437;DHT22;5265;50.006;9.202;2023-03-11T03:58:16;1.30;99.90
10437;DHT22;5265;50.006;9.202;2023-03-11T04:00:43;1.50;99.90
10437;DHT22;5265;50.006;9.202;2023-03-11T04:03:11;1.20;99.90
10437;DHT22;5265;50.006;9.202;2023-03-11T04:05:45;1.10;99.90
10437;DHT22;5265;50.006;9.202;2023-03-11T04:08:14;1.40;99.90
10437;DHT22;5265;50.006;9.202;2023-03-11T04:10:42;1.20;99.90
10437;DHT22;5265;50.006;9.202;2023-03-11T04:13:10;1.20;99.90
10437;DHT22;5265;50.006;9.202;2023-03-11T04:15:38;1.30;99.90
10437;DHT22;5265;50.006;9.202;2023-03-11T04:18:06;1.20;99.90
10437;DHT22;5265;50.006;9.202;2023-03-11T04:20:33;1.40;99.90
10437;DHT22;5265;50.006;9.202;2023-03-11T04:23:00;1.20;99.90
10437;DHT22;5265;50.006;9.202;2023-03-11T04:25:29;1.30;99.90
10437;DHT22;5265;50.006;9.202;2023-03-11T04:27:57;1.20;99.90
10437;DHT22;5265;50.006;9.202;2023-03-11T04:30:24;1.30;99.90
10437;DHT22;5265;50.006;9.202;2023-03-11T04:32:55;1.40;99.90
10437;DHT22;5265;50.006;9.202;2023-03-11T04:35:23;1.20;99.90
10437;DHT22;5265;50.006;9.202;2023-03-11T04:37:51;1.10;99.90
10437;DHT22;5265;50.006;9.202;2023-03-11T04:40:18;1.10;99.90
10437;DHT22;5265;50.006;9.202;2023-03-11T04:42:47;1.10;99.90
10437;DHT22;5265;50.006;9.202;2023-03-11T04:45:15;1.20;99.90
10437;DHT22;5265;50.006;9.202;2023-03-11T04:47:46;1.00;99.90
10437;DHT22;5265;50.006;9.202;2023-03-11T04:50:14;1.00;99.90
10437;DHT22;5265;50.006;9.202;2023-03-11T04:52:41;0.90;99.90
10437;DHT22;5265;50.006;9.202;2023-03-11T04:55:09;1.10;99.90
10437;DHT22;5265;50.006;9.202;2023-03-11T04:57:36;1.00;99.90
10437;DHT22;5265;50.006;9.202;2023-03-11T05:00:05;0.90;99.90
10437;DHT22;5265;50.006;9.202;2023-03-11T05:02:37;0.90;99.90
10437;DHT22;5265;50.006;9.202;2023-03-11T05:05:05;0.90;99.90
10437;DHT22;5265;50.006;9.202;2023-03-11T05:07:33;0.80;99.90
10437;DHT22;5265;50.006;9.202;2023-03-11T05:10:01;0.80;99.90
10437;DHT22;5265;50.006;9.202;2023-03-11T05:12:29;1.00;99.90
10437;DHT22;5265;50.006;9.202;2023-03-11T05:14:56;0.80;99.90
10437;DHT22;5265;50.006;9.202;2023-03-11T05:17:25;1.00;99.90
10437;DHT22;5265;50.006;9.202;2023-03-11T05:19:53;0.90;99.90
10437;DHT22;5265;50.006;9.202;2023-03-11T05:22:24;1.00;99.90
10437;DHT22;5265;50.006;9.202;2023-03-11T05:24:52;0.90;99.90
10437;DHT22;5265;50.006;9.202;2023-03-11T05:27:19;1.40;99.90
10437;DHT22;5265;50.006;9.202;2023-03-11T05:29:51;1.00;99.90
10437;DHT22;5265;50.006;9.202;2023-03-11T05:32:20;0.70;99.90
10437;DHT22;5265;50.006;9.202;2023-03-11T05:34:49;0.90;99.90
10437;DHT22;5265;50.006;9.202;2023-03-11T05:37:17;1.00;99.90
10437;DHT22;5265;50.006;9.202;2023-03-11T05:39:46;1.00;99.90
10437;DHT22;5265;50.006;9.202;2023-03-11T05:42:14;0.90;99.90
10437;DHT22;5265;50.006;9.202;2023-03-11T05:44:43;1.00;99.90
10437;DHT22;5265;50.006;9.202;2023-03-11T05:47:11;1.10;99.90
10437;DHT22;5265;50.006;9.202;2023-03-11T05:49:39;0.90;99.90
10437;DHT22;5265;50.006;9.202;2023-03-11T05:52:07;0.90;99.90
10437;DHT22;5265;50.006;9.202;2023-03-11T05:54:35;0.90;99.90
10437;DHT22;5265;50.006;9.202;2023-03-11T05:57:03;0.80;99.90
10437;DHT22;5265;50.006;9.202;2023-03-11T05:59:31;0.90;99.90
10437;DHT22;5265;50.006;9.202;2023-03-11T06:02:03;0.80;99.90
10437;DHT22;5265;50.006;9.202;2023-03-11T06:04:30;0.80;99.90
10437;DHT22;5265;50.006;9.202;2023-03-11T06:06:59;0.80;99.90
10437;DHT22;5265;50.006;9.202;2023-03-11T06:09:30;0.80;99.90
10437;DHT22;5265;50.006;9.202;2023-03-11T06:11:58;0.90;99.90
10437;DHT22;5265;50.006;9.202;2023-03-11T06:14:36;0.80;99.90
10437;DHT22;5265;50.006;9.202;2023-03-11T06:17:04;0.90;99.90
10437;DHT22;5265;50.006;9.202;2023-03-11T06:19:32;0.80;99.90
10437;DHT22;5265;50.006;9.202;2023-03-11T06:21:59;0.80;99.90
10437;DHT22;5265;50.006;9.202;2023-03-11T06:24:27;0.80;99.90
10437;DHT22;5265;50.006;9.202;2023-03-11T06:26:56;0.80;99.90
10437;DHT22;5265;50.006;9.202;2023-03-11T06:29:25;0.90;99.90
10437;DHT22;5265;50.006;9.202;2023-03-11T06:31:54;0.90;99.90
10437;DHT22;5265;50.006;9.202;2023-03-11T06:34:21;0.90;99.90
10437;DHT22;5265;50.006;9.202;2023-03-11T06:36:50;1.00;99.90
10437;DHT22;5265;50.006;9.202;2023-03-11T06:39:20;0.90;99.90
10437;DHT22;5265;50.006;9.202;2023-03-11T06:41:49;1.00;99.90
10437;DHT22;5265;50.006;9.202;2023-03-11T06:44:18;2.30;99.90
10437;DHT22;5265;50.006;9.202;2023-03-11T06:46:46;1.00;99.90
10437;DHT22;5265;50.006;9.202;2023-03-11T06:49:14;1.00;99.90
10437;DHT22;5265;50.006;9.202;2023-03-11T06:51:42;1.00;99.90
10437;DHT22;5265;50.006;9.202;2023-03-11T06:54:10;0.90;99.90
10437;DHT22;5265;50.006;9.202;2023-03-11T06:56:37;1.40;99.90
10437;DHT22;5265;50.006;9.202;2023-03-11T06:59:06;1.10;99.90
10437;DHT22;5265;50.006;9.202;2023-03-11T07:01:35;1.20;99.90
10437;DHT22;5265;50.006;9.202;2023-03-11T07:04:05;0.80;99.90
10437;DHT22;5265;50.006;9.202;2023-03-11T07:06:34;1.10;99.90
10437;DHT22;5265;50.006;9.202;2023-03-11T07:09:10;1.10;99.90
10437;DHT22;5265;50.006;9.202;2023-03-11T07:11:41;1.10;99.90
10437;DHT22;5265;50.006;9.202;2023-03-11T07:14:12;1.20;99.90
10437;DHT22;5265;50.006;9.202;2023-03-11T07:16:46;1.20;99.90
10437;DHT22;5265;50.006;9.202;2023-03-11T07:19:24;1.10;99.90
10437;DHT22;5265;50.006;9.202;2023-03-11T07:21:52;1.10;99.90
10437;DHT22;5265;50.006;9.202;2023-03-11T07:24:19;1.20;99.90
10437;DHT22;5265;50.006;9.202;2023-03-11T07:26:46;1.10;99.90
10437;DHT22;5265;50.006;9.202;2023-03-11T07:29:13;1.30;99.90
10437;DHT22;5265;50.006;9.202;2023-03-11T07:31:40;1.80;99.90
10437;DHT22;5265;50.006;9.202;2023-03-11T07:34:10;1.20;99.90
10437;DHT22;5265;50.006;9.202;2023-03-11T07:36:38;1.30;99.90
10437;DHT22;5265;50.006;9.202;2023-03-11T07:39:05;1.20;99.90
10437;DHT22;5265;50.006;9.202;2023-03-11T07:41:33;1.30;99.90
10437;DHT22;5265;50.006;9.202;2023-03-11T07:44:01;1.30;99.90
10437;DHT22;5265;50.006;9.202;2023-03-11T07:46:29;1.30;99.90
10437;DHT22;5265;50.006;9.202;2023-03-11T07:48:56;1.70;99.90
10437;DHT22;5265;50.006;9.202;2023-03-11T07:51:25;1.80;99.90
10437;DHT22;5265;50.006;9.202;2023-03-11T07:53:53;1.70;99.90
10437;DHT22;5265;50.006;9.202;2023-03-11T07:56:21;1.60;99.90
10437;DHT22;5265;50.006;9.202;2023-03-11T07:58:50;2.30;99.90
10437;DHT22;5265;50.006;9.202;2023-03-11T08:01:18;1.70;99.90
10437;DHT22;5265;50.006;9.202;2023-03-11T08:03:46;1.40;99.90
10437;DHT22;5265;50.006;9.202;2023-03-11T08:13:39;1.90;99.90
10437;DHT22;5265;50.006;9.202;2023-03-11T08:16:07;1.80;99.90
10437;DHT22;5265;50.006;9.202;2023-03-11T08:18:34;1.90;99.90
10437;DHT22;5265;50.006;9.202;2023-03-11T08:21:03;2.00;99.90
10437;DHT22;5265;50.006;9.202;2023-03-11T08:23:30;2.00;99.90
10437;DHT22;5265;50.006;9.202;2023-03-11T08:25:57;2.20;99.90
10437;DHT22;5265;50.006;9.202;2023-03-11T08:28:24;2.90;99.90
10437;DHT22;5265;50.006;9.202;2023-03-11T08:30:53;2.50;99.90
10437;DHT22;5265;50.006;9.202;2023-03-11T08:33:20;2.40;99.90
10437;DHT22;5265;50.006;9.202;2023-03-11T08:35:47;2.20;99.90
10437;DHT22;5265;50.006;9.202;2023-03-11T08:38:14;2.10;99.90
10437;DHT22;5265;50.006;9.202;2023-03-11T08:40:41;2.10;99.90
10437;DHT22;5265;50.006;9.202;2023-03-11T08:43:10;2.10;99.90
10437;DHT22;5265;50.006;9.202;2023-03-11T08:45:38;1.90;99.90
10437;DHT22;5265;50.006;9.202;2023-03-11T08:48:06;2.10;99.90
10437;DHT22;5265;50.006;9.202;2023-03-11T08:50:35;1.90;99.90
10437;DHT22;5265;50.006;9.202;2023-03-11T08:53:02;1.80;99.90
10437;DHT22;5265;50.006;9.202;2023-03-11T08:55:30;2.30;99.90
10437;DHT22;5265;50.006;9.202;2023-03-11T08:57:56;2.30;99.90
10437;DHT22;5265;50.006;9.202;2023-03-11T09:00:24;2.10;99.90
10437;DHT22;5265;50.006;9.202;2023-03-11T09:02:51;2.40;99.90
10437;DHT22;5265;50.006;9.202;2023-03-11T09:05:19;2.10;99.90
10437;DHT22;5265;50.006;9.202;2023-03-11T09:07:46;2.40;99.90
10437;DHT22;5265;50.006;9.202;2023-03-11T09:10:14;2.40;99.90
10437;DHT22;5265;50.006;9.202;2023-03-11T09:12:41;2.60;99.90
10437;DHT22;5265;50.006;9.202;2023-03-11T09:15:09;2.70;99.90
10437;DHT22;5265;50.006;9.202;2023-03-11T09:17:36;2.40;99.90
10437;DHT22;5265;50.006;9.202;2023-03-11T09:20:03;2.40;99.90
10437;DHT22;5265;50.006;9.202;2023-03-11T09:22:32;2.60;99.90
10437;DHT22;5265;50.006;9.202;2023-03-11T09:24:59;2.30;99.90
10437;DHT22;5265;50.006;9.202;2023-03-11T09:27:26;2.70;99.90
10437;DHT22;5265;50.006;9.202;2023-03-11T09:29:53;2.80;99.90
10437;DHT22;5265;50.006;9.202;2023-03-11T09:32:20;2.70;99.90
10437;DHT22;5265;50.006;9.202;2023-03-11T09:34:47;2.70;99.90
10437;DHT22;5265;50.006;9.202;2023-03-11T09:37:14;2.70;99.90
10437;DHT22;5265;50.006;9.202;2023-03-11T09:39:43;2.40;99.90
10437;DHT22;5265;50.006;9.202;2023-03-11T09:42:13;2.60;99.90
10437;DHT22;5265;50.006;9.202;2023-03-11T09:50:04;3.10;99.90
10437;DHT22;5265;50.006;9.202;2023-03-11T09:52:33;3.30;99.90
10437;DHT22;5265;50.006;9.202;2023-03-11T09:55:04;4.50;99.90
10437;DHT22;5265;50.006;9.202;2023-03-11T09:57:32;3.60;99.90
10437;DHT22;5265;50.006;9.202;2023-03-11T10:00:01;3.50;99.90
10437;DHT22;5265;50.006;9.202;2023-03-11T10:02:37;3.40;99.90
10437;DHT22;5265;50.006;9.202;2023-03-11T10:05:07;4.10;99.90
10437;DHT22;5265;50.006;9.202;2023-03-11T10:07:36;3.40;99.90
10437;DHT22;5265;50.006;9.202;2023-03-11T10:10:09;4.40;99.90
10437;DHT22;5265;50.006;9.202;2023-03-11T10:12:40;3.60;99.90
10437;DHT22;5265;50.006;9.202;2023-03-11T10:15:15;3.70;99.90
10437;DHT22;5265;50.006;9.202;2023-03-11T10:17:52;3.70;99.90
10437;DHT22;5265;50.006;9.202;2023-03-11T10:20:24;4.00;99.90
10437;DHT22;5265;50.006;9.202;2023-03-11T10:22:55;3.90;99.90
10437;DHT22;5265;50.006;9.202;2023-03-11T10:25:27;5.90;99.90
10437;DHT22;5265;50.006;9.202;2023-03-11T10:27:56;3.50;99.90
10437;DHT22;5265;50.006;9.202;2023-03-11T10:30:26;3.70;99.90
10437;DHT22;5265;50.006;9.202;2023-03-11T10:32:55;4.20;99.90
10437;DHT22;5265;50.006;9.202;2023-03-11T10:35:26;3.20;99.90
10437;DHT22;5265;50.006;9.202;2023-03-11T10:37:55;3.20;99.90
10437;DHT22;5265;50.006;9.202;2023-03-11T10:40:27;4.70;99.90
10437;DHT22;5265;50.006;9.202;2023-03-11T10:42:56;5.50;99.90
10437;DHT22;5265;50.006;9.202;2023-03-11T10:45:24;5.20;99.90
10437;DHT22;5265;50.006;9.202;2023-03-11T10:47:51;2.80;99.90
10437;DHT22;5265;50.006;9.202;2023-03-11T10:50:18;4.90;99.90
10437;DHT22;5265;50.006;9.202;2023-03-11T10:55:29;3.40;99.90
10437;DHT22;5265;50.006;9.202;2023-03-11T10:58:03;4.40;99.90
10437;DHT22;5265;50.006;9.202;2023-03-11T11:00:30;4.70;99.90
10437;DHT22;5265;50.006;9.202;2023-03-11T11:02:57;3.70;99.90
10437;DHT22;5265;50.006;9.202;2023-03-11T11:05:26;3.40;99.90
10437;DHT22;5265;50.006;9.202;2023-03-11T11:08:01;3.50;99.90
10437;DHT22;5265;50.006;9.202;2023-03-11T11:10:30;4.50;99.90
10437;DHT22;5265;50.006;9.202;2023-03-11T11:12:58;3.80;99.90
10437;DHT22;5265;50.006;9.202;2023-03-11T11:15:26;3.80;99.90
10437;DHT22;5265;50.006;9.202;2023-03-11T11:17:55;4.30;99.90
10437;DHT22;5265;50.006;9.202;2023-03-11T11:20:22;4.30;99.90
10437;DHT22;5265;50.006;9.202;2023-03-11T11:22:51;3.80;99.90
10437;DHT22;5265;50.006;9.202;2023-03-11T11:25:26;4.80;99.90
10437;DHT22;5265;50.006;9.202;2023-03-11T11:27:55;4.10;99.90
10437;DHT22;5265;50.006;9.202;2023-03-11T11:30:22;4.30;99.90
10437;DHT22;5265;50.006;9.202;2023-03-11T11:32:50;4.00;99.90
10437;DHT22;5265;50.006;9.202;2023-03-11T11:35:18;5.00;99.90
10437;DHT22;5265;50.006;9.202;2023-03-11T11:37:46;4.10;99.90
10437;DHT22;5265;50.006;9.202;2023-03-11T11:40:23;4.10;99.90
10437;DHT22;5265;50.006;9.202;2023-03-11T11:42:51;4.00;99.90
10437;DHT22;5265;50.006;9.202;2023-03-11T11:45:23;5.30;99.90
10437;DHT22;5265;50.006;9.202;2023-03-11T11:47:54;4.50;99.90
10437;DHT22;5265;50.006;9.202;2023-03-11T11:50:25;4.20;99.90
10437;DHT22;5265;50.006;9.202;2023-03-11T11:52:52;4.40;99.90
10437;DHT22;5265;50.006;9.202;2023-03-11T11:55:21;5.30;99.90
10437;DHT22;5265;50.006;9.202;2023-03-11T11:57:50;4.60;99.90
10437;DHT22;5265;50.006;9.202;2023-03-11T12:00:18;5.30;99.90
10437;DHT22;5265;50.006;9.202;2023-03-11T12:02:53;5.00;99.90
10437;DHT22;5265;50.006;9.202;2023-03-11T12:05:23;5.10;99.90
10437;DHT22;5265;50.006;9.202;2023-03-11T12:08:01;5.20;99.90
10437;DHT22;5265;50.006;9.202;2023-03-11T12:10:32;5.10;99.90
10437;DHT22;5265;50.006;9.202;2023-03-11T12:13:12;4.80;99.90
10437;DHT22;5265;50.006;9.202;2023-03-11T12:15:43;4.90;99.90
10437;DHT22;5265;50.006;9.202;2023-03-11T12:18:17;5.50;99.90
10437;DHT22;5265;50.006;9.202;2023-03-11T12:20:46;5.70;99.90
10437;DHT22;5265;50.006;9.202;2023-03-11T12:23:17;5.10;99.90
10437;DHT22;5265;50.006;9.202;2023-03-11T12:25:50;4.10;99.60
10437;DHT22;5265;50.006;9.202;2023-03-11T12:28:20;4.80;99.90
10437;DHT22;5265;50.006;9.202;2023-03-11T12:30:49;5.20;99.80
10437;DHT22;5265;50.006;9.202;2023-03-11T12:33:21;5.20;99.90
10437;DHT22;5265;50.006;9.202;2023-03-11T12:35:51;4.20;99.90
10437;DHT22;5265;50.006;9.202;2023-03-11T12:38:23;4.30;99.90
10437;DHT22;5265;50.006;9.202;2023-03-11T12:40:58;5.00;99.90
10437;DHT22;5265;50.006;9.202;2023-03-11T12:43:27;4.30;99.90
10437;DHT22;5265;50.006;9.202;2023-03-11T12:46:14;5.40;99.90
10437;DHT22;5265;50.006;9.202;2023-03-11T12:48:45;4.30;99.90
10437;DHT22;5265;50.006;9.202;2023-03-11T12:56:52;3.80;99.90
10437;DHT22;5265;50.006;9.202;2023-03-11T12:59:33;5.10;99.90
10437;DHT22;5265;50.006;9.202;2023-03-11T13:02:04;3.90;99.90
10437;DHT22;5265;50.006;9.202;2023-03-11T13:04:46;4.80;99.90
10437;DHT22;5265;50.006;9.202;2023-03-11T13:10:09;4.30;99.90
10437;DHT22;5265;50.006;9.202;2023-03-11T13:12:40;5.00;99.90
10437;DHT22;5265;50.006;9.202;2023-03-11T13:15:32;4.30;99.90
10437;DHT22;5265;50.006;9.202;2023-03-11T13:18:00;4.60;99.90
10437;DHT22;5265;50.006;9.202;2023-03-11T13:20:45;4.60;99.90
10437;DHT22;5265;50.006;9.202;2023-03-11T13:23:24;4.50;99.90
10437;DHT22;5265;50.006;9.202;2023-03-11T13:26:12;4.40;99.90
10437;DHT22;5265;50.006;9.202;2023-03-11T13:28:51;4.20;99.90
10437;DHT22;5265;50.006;9.202;2023-03-11T13:31:30;4.10;99.90
10437;DHT22;5265;50.006;9.202;2023-03-11T13:34:01;4.20;99.90
10437;DHT22;5265;50.006;9.202;2023-03-11T13:36:38;5.20;99.90
10437;DHT22;5265;50.006;9.202;2023-03-11T13:41:55;4.40;99.90
10437;DHT22;5265;50.006;9.202;2023-03-11T13:44:26;5.10;99.90
10437;DHT22;5265;50.006;9.202;2023-03-11T13:46:56;4.40;99.90
10437;DHT22;5265;50.006;9.202;2023-03-11T13:49:26;5.00;99.90
10437;DHT22;5265;50.006;9.202;2023-03-11T13:51:56;5.10;99.90
10437;DHT22;5265;50.006;9.202;2023-03-11T13:54:34;4.50;99.90
10437;DHT22;5265;50.006;9.202;2023-03-11T13:57:03;4.30;99.90
10437;DHT22;5265;50.006;9.202;2023-03-11T13:59:31;4.50;99.90
10437;DHT22;5265;50.006;9.202;2023-03-11T14:02:00;5.00;99.90
10437;DHT22;5265;50.006;9.202;2023-03-11T14:04:30;4.60;99.90
10437;DHT22;5265;50.006;9.202;2023-03-11T14:06:59;5.80;99.90
10437;DHT22;5265;50.006;9.202;2023-03-11T14:09:26;5.10;99.90
10437;DHT22;5265;50.006;9.202;2023-03-11T14:11:54;4.50;99.90
10437;DHT22;5265;50.006;9.202;2023-03-11T14:14:31;4.40;99.90
10437;DHT22;5265;50.006;9.202;2023-03-11T14:17:00;4.90;99.90
10437;DHT22;5265;50.006;9.202;2023-03-11T14:19:29;5.30;99.90
10437;DHT22;5265;50.006;9.202;2023-03-11T14:21:56;4.50;99.90
10437;DHT22;5265;50.006;9.202;2023-03-11T14:24:27;5.40;99.90
10437;DHT22;5265;50.006;9.202;2023-03-11T14:26:55;5.40;99.90
10437;DHT22;5265;50.006;9.202;2023-03-11T14:29:26;4.70;99.90
10437;DHT22;5265;50.006;9.202;2023-03-11T14:31:57;5.30;99.90
10437;DHT22;5265;50.006;9.202;2023-03-11T14:34:25;4.20;99.90
10437;DHT22;5265;50.006;9.202;2023-03-11T14:36:57;4.20;99.90
10437;DHT22;5265;50.006;9.202;2023-03-11T14:39:29;5.60;99.90
10437;DHT22;5265;50.006;9.202;2023-03-11T14:41:58;4.50;99.90
10437;DHT22;5265;50.006;9.202;2023-03-11T14:44:28;4.20;99.90
10437;DHT22;5265;50.006;9.202;2023-03-11T14:47:00;5.10;99.90
10437;DHT22;5265;50.006;9.202;2023-03-11T14:49:30;4.50;99.90
10437;DHT22;5265;50.006;9.202;2023-03-11T14:51:58;5.40;99.90
10437;DHT22;5265;50.006;9.202;2023-03-11T14:54:28;4.90;99.90
10437;DHT22;5265;50.006;9.202;2023-03-11T14:56:58;5.60;99.90
10437;DHT22;5265;50.006;9.202;2023-03-11T14:59:27;5.70;99.90
10437;DHT22;5265;50.006;9.202;2023-03-11T15:01:58;4.20;99.90
10437;DHT22;5265;50.006;9.202;2023-03-11T15:04:26;4.30;99.90
10437;DHT22;5265;50.006;9.202;2023-03-11T15:06:57;4.20;99.90
10437;DHT22;5265;50.006;9.202;2023-03-11T15:09:24;5.40;99.90
10437;DHT22;5265;50.006;9.202;2023-03-11T15:11:54;4.90;99.90
10437;DHT22;5265;50.006;9.202;2023-03-11T15:14:23;5.00;99.90
10437;DHT22;5265;50.006;9.202;2023-03-11T15:16:51;4.50;99.90
10437;DHT22;5265;50.006;9.202;2023-03-11T15:19:20;4.40;99.90
10437;DHT22;5265;50.006;9.202;2023-03-11T15:21:48;4.80;99.90
10437;DHT22;5265;50.006;9.202;2023-03-11T15:24:19;5.30;99.90
10437;DHT22;5265;50.006;9.202;2023-03-11T15:26:52;5.50;99.90
10437;DHT22;5265;50.006;9.202;2023-03-11T15:29:21;4.70;99.90
10437;DHT22;5265;50.006;9.202;2023-03-11T15:31:48;4.60;99.90
10437;DHT22;5265;50.006;9.202;2023-03-11T15:34:22;5.30;99.90
10437;DHT22;5265;50.006;9.202;2023-03-11T15:36:55;4.50;99.90
10437;DHT22;5265;50.006;9.202;2023-03-11T15:39:25;4.50;99.90
10437;DHT22;5265;50.006;9.202;2023-03-11T15:41:57;5.00;99.90
10437;DHT22;5265;50.006;9.202;2023-03-11T15:44:27;4.40;99.90
10437;DHT22;5265;50.006;9.202;2023-03-11T15:46:54;4.70;99.90
10437;DHT22;5265;50.006;9.202;2023-03-11T15:49:24;5.30;99.90
10437;DHT22;5265;50.006;9.202;2023-03-11T15:51:51;4.60;99.90
10437;DHT22;5265;50.006;9.202;2023-03-11T15:54:17;4.30;99.90
10437;DHT22;5265;50.006;9.202;2023-03-11T15:56:45;4.30;99.90
10437;DHT22;5265;50.006;9.202;2023-03-11T15:59:13;4.20;99.90
10437;DHT22;5265;50.006;9.202;2023-03-11T16:01:42;4.20;99.90
10437;DHT22;5265;50.006;9.202;2023-03-11T16:04:11;4.20;99.90
10437;DHT22;5265;50.006;9.202;2023-03-11T16:06:39;4.30;99.90
10437;DHT22;5265;50.006;9.202;2023-03-11T16:09:06;4.20;99.90
10437;DHT22;5265;50.006;9.202;2023-03-11T16:11:34;4.10;99.90
10437;DHT22;5265;50.006;9.202;2023-03-11T16:14:02;4.20;99.90
10437;DHT22;5265;50.006;9.202;2023-03-11T16:16:31;4.00;99.90
10437;DHT22;5265;50.006;9.202;2023-03-11T16:19:02;4.00;99.90
10437;DHT22;5265;50.006;9.202;2023-03-11T16:21:30;4.00;99.90
10437;DHT22;5265;50.006;9.202;2023-03-11T16:23:59;3.90;99.90
10437;DHT22;5265;50.006;9.202;2023-03-11T16:26:26;3.90;99.90
10437;DHT22;5265;50.006;9.202;2023-03-11T16:28:54;4.10;99.90
10437;DHT22;5265;50.006;9.202;2023-03-11T16:31:21;5.00;99.90
10437;DHT22;5265;50.006;9.202;2023-03-11T16:33:48;4.40;99.90
10437;DHT22;5265;50.006;9.202;2023-03-11T16:36:16;4.20;99.90
10437;DHT22;5265;50.006;9.202;2023-03-11T16:38:44;4.30;99.90
10437;DHT22;5265;50.006;9.202;2023-03-11T16:41:11;4.50;99.90
10437;DHT22;5265;50.006;9.202;2023-03-11T16:43:38;4.50;99.90